Terminal Aerodrome Forecast
Issued by NWS

Home | Current Version | Previous Version | Text Only | Print | Product List | Glossary On
Versions: 1 2 3 4 5 6 7 8 9 10 11 12 13 14 15 16 17 18 19 20
000
FTUS46 KMFR 212300 RRA
TAFRBG
TAF
KRBG 212342Z 2200/2224 18010KT P6SM SCT060 BKN080 BKN100
     FM220600 VRB03KT P6SM OVC070
     FM221400 17004KT P6SM -SHRA SCT040 BKN060 OVC080
     FM222100 18010KT P6SM -RA BKN040 OVC060=

USA.gov is the U.S. government's official web portal to all federal, state and local government web resources and services.